• Join FlightAware (Why Join?)
  • Login
  • US Flag 
03:11PM EDT


 

Airport Tracker/Info


-or-


 

Live Flight TrackerFlight Track Log ✈ SWA286 ✈ 07-Apr-2013 ✈ KBWI - KRSW

Flight Track Log - Related Links

Times and Time Zones

All times are in EDT time to prevent confusion due to time zone crossing. See the SWA286 flight status page for this flight to view local times or setup timezone preferences in your user account.

Time Position Orientation Groundspeed Altitude Reporting Facility
EDT Latitude Longitude Course Direction KTS MPH feet Rate Location/Type
05:06PM 39.1000 -76.6000 145° Southeast 226 260 4,700  Level Potomac TRACON
05:07PM 39.0667 -76.5500 131° Southeast 256 295 7,900 3,300 Climbing Potomac TRACON
05:08PM 39.0167 -76.5000 142° Southeast 283 326 10,700 2,940 Climbing Potomac TRACON
05:09PM 38.9333 -76.4333 148° Southeast 315 362 13,600 1,620 Climbing Potomac TRACON
05:10PM 38.8667 -76.5000 218° Southwest 326 375 14,000 900 Climbing Potomac TRACON
05:13PM 38.6878 -76.6289 209° Southwest 336 387 16,500 1,560 Climbing Washington Center
05:14PM 38.6039 -76.6942 211° Southwest 347 399 19,000 1,800 Climbing Washington Center
05:15PM 38.5058 -76.7192 191° South 352 405 20,200 1,860 Climbing Washington Center
05:16PM 38.3933 -76.7042 174° South 374 430 22,800 1,620 Climbing Washington Center
05:17PM 38.2767 -76.6867 173° South 395 455 23,500 1,080 Climbing Washington Center
05:18PM 38.1600 -76.6719 174° South 415 478 25,000 1,500 Climbing Washington Center
05:19PM 38.0433 -76.6569 174° South 425 489 26,600 1,500 Climbing Washington Center
05:20PM 37.9247 -76.6422 174° South 425 489 28,000 1,620 Climbing Washington Center
05:21PM 37.8039 -76.6247 173° South 431 496 29,900 1,920 Climbing Washington Center
05:22PM 37.6789 -76.6072 174° South 444 511 31,900 1,020 Climbing Washington Center
05:23PM 37.5539 -76.5925 175° South 450 518 32,000 900 Climbing Washington Center
05:24PM 37.4289 -76.5753 174° South 450 518 33,800 1,680 Climbing Washington Center
05:25PM 37.3100 -76.5606 174° South 445 512 35,400 1,620 Climbing Washington Center
05:26PM 37.1911 -76.5486 175° South 440 506 37,100 1,440 Climbing Washington Center
05:27PM 37.0825 -76.5864 196° South 418 481 38,300 1,020 Climbing Washington Center
05:28PM 36.9736 -76.6292 197° South 413 475 39,200 720 Climbing Washington Center
05:29PM 36.8669 -76.6694 197° South 413 475 39,800 360 Climbing Washington Center
05:30PM 36.7558 -76.7144 198° South 413 475 40,000 60 Climbing Washington Center
05:31PM 36.6447 -76.7594 198° South 419 482 40,000  Level Washington Center
05:32PM 36.5339 -76.8044 198° South 424 488 40,000  Level Washington Center
05:33PM 36.4269 -76.8439 197° South 424 488 40,000  Level Washington Center
05:34PM 36.3203 -76.8836 197° South 424 488 40,000  Level Washington Center
05:35PM 36.2111 -76.9256 197° South 424 488 40,000  Level Washington Center
05:36PM 36.1022 -76.9675 197° South 418 481 40,000  Level Washington Center
05:37PM 35.9953 -77.0067 197° South 412 474 40,000  Level Washington Center
05:38PM 35.8886 -77.0483 198° South 412 474 40,000  Level Washington Center
05:39PM 35.7817 -77.0872 196° South 407 468 40,000  Level Washington Center
05:40PM 35.6767 -77.1289 198° South 402 463 40,000  Level Washington Center
05:41PM 35.5697 -77.1703 197° South 402 463 40,000  Level Washington Center
05:42PM 35.4586 -77.2114 197° South 407 468 40,000  Level Washington Center
05:43PM 35.3497 -77.2525 197° South 412 474 40,000  Level Washington Center
05:44PM 35.2406 -77.2908 196° South 412 474 40,000  Level Washington Center
05:45PM 35.1336 -77.3317 197° South 412 474 40,000  Level Washington Center
05:46PM 35.0225 -77.3725 197° South 412 474 40,000  Level Washington Center
05:47PM 34.9133 -77.4131 197° South 412 474 40,000  Level Washington Center
05:48PM 34.8250 -77.4467 197° South 406 467 40,000  Level Washington Center
05:49PM 34.7097 -77.4919 198° South 406 467 40,000  Level Washington Center
05:50PM 34.5983 -77.5322 197° South 406 467 40,000  Level Washington Center
05:51PM 34.4914 -77.5750 198° South 406 467 40,000  Level Washington Center
05:52PM 34.3800 -77.6128 196° South 406 467 40,000  Level Washington Center
05:53PM 34.1897 -77.6814 197° South 409 471 40,000  Level Jacksonville Center
05:54PM 34.0808 -77.7203 196° South 417 480 40,000  Level Jacksonville Center
05:55PM 33.9697 -77.7594 196° South 422 486 40,000  Level Jacksonville Center
05:56PM 33.8567 -77.7986 196° South 417 480 40,000  Level Jacksonville Center
05:57PM 33.7458 -77.8425 198° South 417 480 40,000  Level Jacksonville Center
05:58PM 33.6344 -77.8789 195° South 417 480 40,000  Level Jacksonville Center
05:59PM 33.5214 -77.9200 197° South 417 480 40,000  Level Jacksonville Center
06:00PM 33.4144 -77.9583 197° South 412 474 40,000  Level Jacksonville Center
06:01PM 33.3033 -77.9969 196° South 412 474 40,000  Level Jacksonville Center
06:02PM 33.1881 -78.0381 197° South 417 480 40,000  Level Jacksonville Center
06:03PM 33.0769 -78.0786 197° South 417 480 40,000  Level Jacksonville Center
06:04PM 32.9636 -78.1169 196° South 417 480 40,000  Level Jacksonville Center
06:05PM 32.8525 -78.1600 198° South 417 480 40,000  Level Jacksonville Center
06:06PM 32.7392 -78.1981 196° South 417 480 40,000  Level Jacksonville Center
06:07PM 32.6258 -78.2383 197° South 417 480 40,000  Level Jacksonville Center
06:08PM 32.5122 -78.2739 195° South 423 487 40,000  Level Jacksonville Center
06:09PM 32.4011 -78.3139 197° South 423 487 40,000  Level Jacksonville Center
06:10PM 32.2775 -78.3617 198° South 423 487 40,000  Level Jacksonville Center
06:11PM 32.1622 -78.4042 197° South 428 493 40,000  Level Jacksonville Center
06:12PM 32.0547 -78.4389 195° South 423 487 40,000  Level Jacksonville Center
06:13PM 31.9436 -78.4786 197° South 418 481 40,000  Level Jacksonville Center
06:14PM 31.8342 -78.5156 196° South 412 474 40,000  Level Jacksonville Center
06:15PM 31.7208 -78.5553 197° South 417 480 40,000  Level Jacksonville Center
06:16PM 31.6117 -78.5994 199° South 415 478 40,000  Level Jacksonville Center
06:17PM 31.5025 -78.6433 199° South 420 483 40,000  Level Jacksonville Center
06:18PM 31.3953 -78.6847 198° South 420 483 40,000  Level Jacksonville Center
06:19PM 31.2842 -78.7311 200° South 420 483 40,000  Level Jacksonville Center
06:20PM 31.1767 -78.7697 197° South 409 471 40,000  Level Jacksonville Center
06:21PM 31.0697 -78.8133 199° South 420 483 40,000  Level Jacksonville Center
06:22PM 30.9603 -78.8544 198° South 420 483 40,000  Level Jacksonville Center
06:24PM 30.7697 -78.9308 199° South 400 460 40,000  Level Miami Center
06:25PM 30.6544 -78.9719 197° South 416 479 40,000  Level Miami Center
06:26PM 30.5517 -79.0133 199° South 411 473 40,000  Level Miami Center
06:27PM 30.4511 -79.0519 198° South 405 466 40,000  Level Miami Center
06:28PM 30.3419 -79.0956 199° South 411 473 40,000  Level Miami Center
06:29PM 30.2289 -79.1364 197° South 411 473 40,000  Level Miami Center
06:30PM 30.1219 -79.1772 198° South 411 473 40,000  Level Miami Center
06:31PM 30.0169 -79.2181 199° South 405 466 40,000  Level Miami Center
06:32PM 29.9142 -79.2614 200° South 405 466 40,000  Level Miami Center
06:33PM 29.8092 -79.3044 200° South 405 466 40,000 -120 Level Miami Center
06:34PM 29.7019 -79.3425 197° South 405 466 39,800 -600 Descending Miami Center
06:35PM 29.5950 -79.3831 198° South 411 473 38,800 -960 Descending Miami Center
06:36PM 29.4858 -79.4283 200° South 411 473 37,900 -960 Descending Miami Center
06:37PM 29.3703 -79.4661 196° South 416 479 36,900 -960 Descending Miami Center
06:38PM 29.2569 -79.5083 198° South 423 487 36,000 -900 Descending Miami Center
06:39PM 29.1475 -79.5511 199° South 423 487 35,100 -960 Descending Miami Center
06:40PM 29.0525 -79.6197 212° Southwest 423 487 34,100 -1,020 Descending Miami Center
06:41PM 28.9775 -79.7128 227° Southwest 400 460 33,100 -1,140 Descending Miami Center
06:42PM 28.9025 -79.8106 229° Southwest 400 460 31,900 -1,140 Descending Miami Center
06:43PM 28.8233 -79.9033 226° Southwest 410 472 30,900 -1,020 Descending Miami Center
06:44PM 28.7483 -79.9981 228° Southwest 415 478 29,900 -1,020 Descending Miami Center
06:45PM 28.6714 -80.0883 226° Southwest 410 472 28,900 -1,440 Descending Miami Center
06:46PM 28.6003 -80.1761 227° Southwest 392 451 27,100 -1,980 Descending Miami Center
06:47PM 28.5317 -80.2614 228° Southwest 381 438 25,000 -1,800 Descending Miami Center
06:48PM 28.4706 -80.3683 237° Southwest 376 433 23,500 -1,200 Descending Miami Center
06:49PM 28.4306 -80.4661 245° Southwest 359 413 22,600 -960 Descending Miami Center
06:50PM 28.3906 -80.5686 246° West 359 413 21,600 -960 Descending Miami Center
06:51PM 28.3547 -80.6594 246° West 354 407 20,700 -840 Descending Miami Center
06:52PM 28.3144 -80.7572 245° Southwest 354 407 20,000 -360 Descending Miami Center
06:53PM 28.2722 -80.8547 244° Southwest 354 407 20,000  Level Miami Center
06:54PM 28.2339 -80.9569 247° West 354 407 20,000  Level Miami Center
06:55PM 28.1914 -81.0542 244° Southwest 354 407 20,000  Level Miami Center
06:56PM 28.1486 -81.1633 246° West 354 407 20,000  Level Miami Center
06:57PM 28.1100 -81.2608 246° West 354 407 20,000  Level Miami Center
06:58PM 28.0697 -81.3508 243° Southwest 354 407 20,000 -600 Level Miami Center
06:59PM 27.9686 -81.3844 196° South 325 374 18,900 -1,080 Descending Miami Center
07:00PM 27.8658 -81.3944 185° South 353 406 17,900 -840 Descending Miami Center
07:01PM 27.7781 -81.4050 186° South 363 418 17,300 -840 Descending Miami Center
07:02PM 27.6794 -81.4153 185° South 363 418 16,300 -1,020 Descending Miami Center
07:03PM 27.5853 -81.4256 186° South 363 418 15,300 -1,080 Descending Miami Center
07:04PM 27.4889 -81.4356 185° South 357 411 14,200 -1,860 Descending Miami Center
07:05PM 27.3928 -81.4436 184° South 351 404 11,600 -2,160 Descending Miami Center
07:06PM 27.2983 -81.4539 186° South 351 404 9,900 -840 Descending Miami Center
07:07PM 27.2083 -81.4619 185° South 341 392 10,000  Climbing Miami Center
07:08PM 27.1206 -81.4725 186° South 335 386 10,000  Level Miami Center
07:09PM 27.0219 -81.4803 184° South 330 380 10,000  Level Miami Center
07:10PM 26.9417 -81.4489 161° South 317 365 10,000  Level Miami Center
07:11PM 26.8758 -81.4161 156° South 301 346 10,000  Level Miami Center
07:12PM 26.7994 -81.3853 160° South 301 346 10,000 -360 Level Miami Center
07:13PM 26.7117 -81.3958 186° South 283 326 9,300 -960 Descending Miami Center
07:14PM 26.6436 -81.4281 203° Southwest 270 311 8,100 -1,260 Descending Miami Center
07:15PM 26.6061 -81.4939 238° Southwest 264 304 6,800 -1,380 Descending Miami Center
07:16PM 26.5625 -81.5572 232° Southwest 271 312 5,400 -1,440 Descending Miami Center
07:18PM 26.5383 -81.7394 262° West  Level Estimated
07:25PM 26.5362 -81.7552 262° West  Level Estimated
07:26PM 26.5362 -81.7552 138° Southeast  Level Estimated
07:27PM 26.5362 -81.7552 138° Southeast  Level Estimated
07:28PM 26.5362 -81.7552 138° Southeast  Level Estimated
07:29PM 26.5362 -81.7552 138° Southeast  Level Estimated
07:30PM 26.5362 -81.7552 138° Southeast  Level Estimated
07:31PM 26.5362 -81.7552 138° Southeast  Level Estimated
07:32PM 26.5362 -81.7552 138° Southeast  Level Estimated
07:33PM 26.5362 -81.7552 138° Southeast  Level Estimated
07:34PM 26.5362 -81.7552 138° Southeast  Level Estimated